| time (UTC) | temp F | wind direction | speed MPH | gust MPH | rain 1hr in | rain 24hr in | rain mn in | humidity % | barometer mb |
| 20260507073040 | 66 | 129 | 0.0 | 4.0 | 0.12 | 1.16 | 0.14 | 98 | 1011.0 |
| 20260507071539 | 66 | 214 | 1.0 | 4.0 | 0.05 | 1.10 | 0.07 | 98 | 1010.8 |
| 20260507070043 | 66 | 268 | 0.0 | 2.0 | 0.01 | 1.05 | 0.03 | 98 | 1009.5 |
| 20260507064558 | 66 | 0 | 0.0 | 0.0 | 0.00 | 1.04 | 0.02 | 97 | 1011.5 |
| 20260507063035 | 66 | 0 | 0.0 | 0.0 | 0.00 | 1.04 | 0.02 | 97 | 1011.2 |
| 20260507061533 | 66 | 0 | 0.0 | 0.0 | 0.00 | 1.04 | 0.02 | 97 | 1011.7 |
| 20260507060051 | 66 | 0 | 0.0 | 0.0 | 0.02 | 1.04 | 0.02 | 97 | 1011.8 |
| 20260507054536 | 66 | 152 | 0.0 | 2.0 | 0.02 | 1.04 | 0.02 | 97 | 1012.0 |
| 20260507053037 | 66 | 0 | 0.0 | 1.0 | 0.03 | 1.04 | 0.02 | 97 | 1012.5 |
| 20260507051534 | 66 | 120 | 0.0 | 1.0 | 0.04 | 1.04 | 0.02 | 97 | 1012.5 |
| 20260507050041 | 67 | 0 | 0.0 | 2.0 | 0.07 | 1.03 | 0.00 | 97 | 1012.7 |
| 20260507044539 | 67 | 0 | 0.0 | 0.0 | 0.13 | 1.03 | 1.03 | 97 | 1011.7 |
| 20260507043041 | 67 | 0 | 0.0 | 0.0 | 0.17 | 1.02 | 1.02 | 97 | 1012.3 |
| 20260507041537 | 67 | 0 | 0.0 | 0.0 | 0.18 | 1.00 | 1.00 | 97 | 1013.0 |
| 20260507040034 | 67 | 0 | 0.0 | 0.0 | 0.35 | 0.95 | 0.95 | 97 | 1011.7 |
| 20260507034530 | 67 | 0 | 0.0 | 0.0 | 0.44 | 0.90 | 0.90 | 97 | 1012.2 |
| 20260507033038 | 67 | 0 | 0.0 | 1.0 | 0.61 | 0.84 | 0.84 | 97 | 1012.3 |
| 20260507031538 | 67 | 0 | 0.0 | 3.0 | 0.60 | 0.82 | 0.82 | 97 | 1013.2 |
| 20260507030040 | 67 | 0 | 0.0 | 1.0 | 0.38 | 0.60 | 0.60 | 96 | 1014.1 |
| 20260507024535 | 67 | 120 | 0.0 | 3.0 | 0.24 | 0.46 | 0.46 | 96 | 1013.5 |
| 20260507023033 | 68 | 0 | 0.0 | 3.0 | 0.01 | 0.23 | 0.23 | 95 | 1013.1 |
| 20260507021536 | 71 | 117 | 0.0 | 3.0 | 0.00 | 0.22 | 0.22 | 97 | 1012.2 |
| 20260507020035 | 71 | 0 | 0.0 | 0.0 | 0.00 | 0.22 | 0.22 | 97 | 1012.1 |
| 20260507014538 | 71 | 0 | 0.0 | 0.0 | 0.00 | 0.22 | 0.22 | 97 | 1012.3 |
| 20260507013031 | 71 | 0 | 0.0 | 0.0 | 0.00 | 0.22 | 0.22 | 97 | 1011.9 |
| 20260507011541 | 71 | 0 | 0.0 | 1.0 | 0.00 | 0.22 | 0.22 | 97 | 1011.8 |
| 20260507010055 | 71 | 0 | 0.0 | 0.0 | 0.00 | 0.22 | 0.22 | 97 | 1011.5 |
| 20260507004537 | 71 | 0 | 0.0 | 1.0 | 0.00 | 0.22 | 0.22 | 97 | 1012.0 |
| 20260507003039 | 71 | 0 | 0.0 | 0.0 | 0.00 | 0.22 | 0.22 | 97 | 1012.4 |
| 20260507001537 | 72 | 219 | 0.0 | 1.0 | 0.00 | 0.22 | 0.22 | 97 | 1011.5 |
| 20260507000036 | 72 | 0 | 0.0 | 1.0 | 0.00 | 0.22 | 0.22 | 97 | 1011.8 |
| 20260506234538 | 72 | 0 | 0.0 | 0.0 | 0.00 | 0.22 | 0.22 | 97 | 1011.5 |
| 20260506233037 | 72 | 0 | 0.0 | 0.0 | 0.00 | 0.22 | 0.22 | 96 | 1012.1 |
| 20260506231551 | 72 | 0 | 0.0 | 1.0 | 0.00 | 0.22 | 0.22 | 96 | 1012.6 |
| 20260506230052 | 73 | 0 | 0.0 | 1.0 | 0.00 | 0.22 | 0.22 | 96 | 1012.7 |
| 20260506224539 | 73 | 0 | 0.0 | 1.0 | 0.00 | 0.22 | 0.22 | 96 | 1012.3 |
| 20260506223035 | 72 | 0 | 0.0 | 2.0 | 0.01 | 0.22 | 0.22 | 96 | 1012.2 |
| 20260506221541 | 72 | 0 | 0.0 | 1.0 | 0.02 | 0.22 | 0.22 | 96 | 1012.3 |
| 20260506220050 | 72 | 0 | 0.0 | 0.0 | 0.06 | 0.22 | 0.22 | 96 | 1012.4 |
| 20260506214540 | 72 | 0 | 0.0 | 1.0 | 0.11 | 0.22 | 0.22 | 95 | 1012.5 |
| 20260506213039 | 72 | 0 | 0.0 | 1.0 | 0.21 | 0.21 | 0.21 | 95 | 1012.6 |
| 20260506211536 | 72 | 0 | 0.0 | 1.0 | 0.20 | 0.20 | 0.20 | 94 | 1012.9 |
| 20260506210035 | 72 | 0 | 0.0 | 0.0 | 0.16 | 0.16 | 0.16 | 92 | 1013.2 |
| 20260506204541 | 74 | 276 | 0.0 | 2.0 | 0.11 | 0.11 | 0.11 | 89 | 1013.1 |
| 20260506203039 | 75 | 0 | 0.0 | 2.0 | 0.00 | 0.00 | 0.00 | 85 | 1012.8 |
| 20260506201542 | 76 | 324 | 1.0 | 3.0 | 0.00 | 0.00 | 0.00 | 83 | 1013.3 |
| 20260506200037 | 77 | 316 | 0.0 | 3.0 | 0.00 | 0.00 | 0.00 | 82 | 1013.2 |
| 20260506194540 | 77 | 307 | 0.0 | 2.0 | 0.00 | 0.00 | 0.00 | 82 | 1013.7 |
| 20260506193038 | 77 | 0 | 0.0 | 1.0 | 0.00 | 0.00 | 0.00 | 81 | 1014.1 |
| 20260506191538 | 77 | 275 | 0.0 | 4.0 | 0.00 | 0.00 | 0.00 | 81 | 1014.1 |
| 20260506190036 | 77 | 0 | 0.0 | 2.0 | 0.00 | 0.00 | 0.00 | 80 | 1014.3 |
| 20260506184538 | 77 | 296 | 0.0 | 4.0 | 0.00 | 0.00 | 0.00 | 80 | 1014.4 |
| 20260506183039 | 78 | 302 | 0.0 | 2.0 | 0.00 | 0.00 | 0.00 | 80 | 1014.4 |
| 20260506181540 | 78 | 284 | 0.0 | 3.0 | 0.00 | 0.00 | 0.00 | 79 | 1014.5 |
| 20260506180040 | 78 | 141 | 0.0 | 3.0 | 0.00 | 0.00 | 0.00 | 78 | 1014.6 |
| 20260506174537 | 78 | 274 | 0.0 | 5.0 | 0.00 | 0.00 | 0.00 | 78 | 1014.7 |
| 20260506173041 | 78 | 271 | 1.0 | 5.0 | 0.00 | 0.00 | 0.00 | 76 | 1014.8 |
| 20260506171545 | 78 | 6 | 1.0 | 3.0 | 0.00 | 0.00 | 0.00 | 77 | 1014.7 |
| 20260506170043 | 77 | 295 | 1.0 | 4.0 | 0.00 | 0.00 | 0.00 | 77 | 1014.8 |
| 20260506164539 | 77 | 262 | 0.0 | 2.0 | 0.00 | 0.00 | 0.00 | 78 | 1014.9 |
| 20260506163038 | 78 | 327 | 1.0 | 4.0 | 0.00 | 0.00 | 0.00 | 74 | 1014.9 |
| 20260506161537 | 79 | 93 | 0.0 | 5.0 | 0.00 | 0.00 | 0.00 | 75 | 1014.8 |
| 20260506160039 | 78 | 311 | 0.0 | 3.0 | 0.00 | 0.00 | 0.00 | 77 | 1014.7 |
| 20260506154535 | 76 | 307 | 0.0 | 2.0 | 0.00 | 0.00 | 0.00 | 80 | 1014.7 |
| 20260506153039 | 76 | 0 | 0.0 | 3.0 | 0.00 | 0.00 | 0.00 | 78 | 1014.6 |
| 20260506151540 | 75 | 133 | 1.0 | 4.0 | 0.00 | 0.00 | 0.00 | 79 | 1014.7 |
| 20260506150035 | 75 | 271 | 0.0 | 4.0 | 0.00 | 0.00 | 0.00 | 80 | 1014.9 |
| 20260506144550 | 74 | 0 | 1.0 | 4.0 | 0.00 | 0.00 | 0.00 | 81 | 1015.1 |
| 20260506143039 | 74 | 319 | 1.0 | 8.0 | 0.00 | 0.00 | 0.00 | 81 | 1014.9 |
| 20260506141540 | 73 | 0 | 0.0 | 4.0 | 0.00 | 0.00 | 0.00 | 83 | 1015.0 |
| 20260506140037 | 72 | 241 | 0.0 | 3.0 | 0.00 | 0.00 | 0.00 | 86 | 1014.7 |
| 20260506134538 | 70 | 288 | 0.0 | 4.0 | 0.00 | 0.00 | 0.00 | 87 | 1015.0 |
| 20260506133035 | 69 | 146 | 0.0 | 4.0 | 0.00 | 0.00 | 0.00 | 88 | 1015.2 |
| 20260506131543 | 69 | 236 | 0.0 | 4.0 | 0.00 | 0.00 | 0.00 | 89 | 1015.4 |
| 20260506130037 | 68 | 257 | 0.0 | 4.0 | 0.00 | 0.00 | 0.00 | 89 | 1015.4 |
| 20260506124537 | 68 | 297 | 0.0 | 2.0 | 0.00 | 0.00 | 0.00 | 89 | 1015.3 |
| 20260506123036 | 67 | 322 | 0.0 | 2.0 | 0.00 | 0.00 | 0.00 | 89 | 1015.2 |
| 20260506121534 | 67 | 0 | 0.0 | 2.0 | 0.00 | 0.00 | 0.00 | 89 | 1014.9 |
| 20260506120039 | 67 | 281 | 0.0 | 1.0 | 0.00 | 0.00 | 0.00 | 89 | 1014.4 |
| 20260506114543 | 67 | 0 | 0.0 | 3.0 | 0.00 | 0.00 | 0.00 | 89 | 1014.2 |
| 20260506113038 | 66 | 257 | 0.0 | 2.0 | 0.00 | 0.00 | 0.00 | 89 | 1014.0 |
| 20260506111536 | 66 | 0 | 0.0 | 1.0 | 0.00 | 0.00 | 0.00 | 88 | 1014.0 |
| 20260506110042 | 66 | 291 | 0.0 | 1.0 | 0.00 | 0.00 | 0.00 | 88 | 1013.9 |
| 20260506104537 | 66 | 0 | 0.0 | 2.0 | 0.00 | 0.00 | 0.00 | 87 | 1013.6 |
| 20260506103039 | 66 | 0 | 0.0 | 3.0 | 0.00 | 0.00 | 0.00 | 87 | 1013.6 |
| 20260506101537 | 66 | 0 | 0.0 | 3.0 | 0.00 | 0.00 | 0.00 | 87 | 1013.5 |
| 20260506100039 | 66 | 0 | 0.0 | 1.0 | 0.00 | 0.00 | 0.00 | 86 | 1013.1 |
| 20260506094535 | 66 | 0 | 0.0 | 1.0 | 0.00 | 0.00 | 0.00 | 86 | 1013.1 |
| 20260506093032 | 66 | 0 | 0.0 | 2.0 | 0.00 | 0.00 | 0.00 | 86 | 1012.7 |
| 20260506091537 | 67 | 0 | 0.0 | 2.0 | 0.00 | 0.00 | 0.00 | 85 | 1012.6 |
| 20260506090036 | 67 | 274 | 0.0 | 2.0 | 0.00 | 0.00 | 0.00 | 85 | 1012.4 |
| 20260506084542 | 67 | 0 | 0.0 | 3.0 | 0.00 | 0.00 | 0.00 | 84 | 1012.2 |
| 20260506083034 | 67 | 0 | 0.0 | 4.0 | 0.00 | 0.00 | 0.00 | 84 | 1012.5 |
| 20260506081543 | 67 | 0 | 0.0 | 4.0 | 0.00 | 0.00 | 0.00 | 83 | 1012.6 |